createdAt,value
2018-09-19T00:04:11.073Z,18.50
2018-09-19T00:09:08.314Z,18.50
2018-09-19T00:14:03.947Z,18.40
2018-09-19T00:18:58.291Z,18.40
2018-09-19T00:23:52.954Z,18.40
2018-09-19T00:28:48.489Z,18.30
2018-09-19T00:33:50.653Z,18.30
2018-09-19T00:38:52.665Z,18.30
2018-09-19T00:43:48.236Z,18.20
2018-09-19T00:48:42.429Z,18.10
2018-09-19T00:53:37.376Z,18.10
2018-09-19T00:58:32.949Z,18.00
2018-09-19T01:03:33.931Z,18.00
2018-09-19T01:08:29.400Z,17.90
2018-09-19T01:13:25.411Z,17.90
2018-09-19T01:18:20.249Z,17.80
2018-09-19T01:23:16.493Z,17.70
2018-09-19T01:28:11.120Z,17.70
2018-09-19T01:33:06.838Z,17.60
2018-09-19T01:38:01.407Z,17.50
2018-09-19T01:42:58.273Z,17.40
2018-09-19T01:47:52.426Z,17.40
2018-09-19T01:52:46.295Z,17.40
2018-09-19T01:57:41.545Z,17.30
2018-09-19T02:02:36.678Z,17.20
2018-09-19T02:07:39.741Z,17.20
2018-09-19T02:12:35.167Z,17.10
2018-09-19T02:17:29.180Z,17.10
2018-09-19T02:22:25.660Z,17.10
2018-09-19T02:27:19.800Z,17.00
2018-09-19T02:32:14.232Z,17.00
2018-09-19T02:37:09.321Z,17.00
2018-09-19T02:42:06.959Z,16.90
2018-09-19T02:47:00.868Z,16.80
2018-09-19T02:51:59.796Z,16.80
2018-09-19T02:56:53.914Z,16.80
2018-09-19T03:01:48.116Z,16.80
2018-09-19T03:06:44.460Z,16.80
2018-09-19T03:11:39.221Z,16.80
2018-09-19T03:16:33.729Z,16.80
2018-09-19T03:21:28.953Z,16.70
2018-09-19T03:26:23.168Z,16.60
2018-09-19T03:31:17.496Z,16.60
2018-09-19T03:36:12.372Z,16.60
2018-09-19T03:41:08.024Z,16.60
2018-09-19T03:46:04.689Z,16.60
2018-09-19T03:50:59.890Z,16.60
2018-09-19T03:55:57.532Z,16.60
2018-09-19T04:00:52.451Z,16.50
2018-09-19T04:05:46.392Z,16.50
2018-09-19T04:10:41.601Z,16.50
2018-09-19T04:15:38.143Z,16.50
2018-09-19T04:20:35.315Z,16.40
2018-09-19T04:25:30.398Z,16.40
2018-09-19T04:30:25.743Z,16.30
2018-09-19T04:35:20.385Z,16.30
2018-09-19T04:40:15.364Z,16.30
2018-09-19T04:45:10.440Z,16.20
2018-09-19T04:50:06.863Z,16.20
2018-09-19T04:55:01.720Z,16.30
2018-09-19T04:59:56.326Z,16.30
2018-09-19T05:04:51.664Z,16.30
2018-09-19T05:09:54.769Z,16.30
2018-09-19T05:14:49.210Z,16.40
2018-09-19T05:19:44.336Z,16.60
2018-09-19T05:24:40.171Z,16.70
2018-09-19T05:29:37.006Z,16.80
2018-09-19T05:34:39.395Z,16.90
2018-09-19T05:39:37.698Z,17.10
2018-09-19T05:44:32.307Z,17.10
2018-09-19T05:49:27.126Z,17.40
2018-09-19T05:54:22.778Z,17.70
2018-09-19T05:59:25.811Z,18.20
2018-09-19T06:04:27.684Z,18.70
2018-09-19T06:09:23.478Z,18.80
2018-09-19T06:14:19.689Z,19.40
2018-09-19T06:19:31.775Z,19.80
2018-09-19T06:24:52.084Z,20.00
2018-09-19T06:29:47.035Z,20.90
2018-09-19T06:34:41.122Z,21.10
2018-09-19T06:39:37.186Z,22.30
2018-09-19T06:44:32.531Z,22.40
2018-09-19T06:49:28.643Z,21.80
2018-09-19T06:54:22.818Z,21.80
2018-09-19T06:59:18.991Z,21.60
2018-09-19T07:04:14.313Z,21.50
2018-09-19T07:09:10.478Z,21.50
2018-09-19T07:14:06.251Z,21.40
2018-09-19T07:19:01.259Z,21.70
2018-09-19T07:23:56.436Z,21.90
2018-09-19T07:28:53.132Z,22.20
2018-09-19T07:33:47.106Z,22.50
2018-09-19T07:38:42.345Z,22.80
2018-09-19T07:43:38.251Z,23.20
2018-09-19T07:48:33.615Z,23.60
2018-09-19T07:53:33.152Z,24.80
2018-09-19T07:58:28.237Z,25.10
2018-09-19T08:03:24.012Z,25.60
2018-09-19T08:08:18.587Z,25.90
2018-09-19T08:13:12.850Z,25.60
2018-09-19T08:18:07.414Z,25.50
2018-09-19T08:23:03.818Z,26.90
2018-09-19T08:27:59.661Z,27.20
2018-09-19T08:33:18.765Z,26.90
2018-09-19T08:38:16.394Z,26.70
2018-09-19T08:43:10.253Z,27.30
2018-09-19T08:48:06.202Z,27.90
2018-09-19T08:53:02.090Z,28.30
2018-09-19T08:58:05.964Z,28.20
2018-09-19T09:03:08.749Z,27.60
2018-09-19T09:08:10.124Z,27.30
2018-09-19T09:13:05.094Z,26.60
2018-09-19T09:18:00.489Z,26.30
2018-09-19T09:22:57.369Z,27.30
2018-09-19T09:27:52.127Z,29.10
2018-09-19T09:32:54.997Z,33.00
2018-09-19T09:37:59.072Z,33.90
2018-09-19T09:43:16.322Z,34.70
2018-09-19T09:48:34.447Z,38.30
2018-09-19T09:53:52.503Z,38.30
2018-09-19T09:58:48.847Z,39.60
2018-09-19T10:03:43.313Z,41.20
2018-09-19T10:08:38.820Z,40.00
2018-09-19T10:13:35.603Z,41.10
2018-09-19T10:18:42.968Z,42.00
2018-09-19T10:23:42.749Z,41.40
2018-09-19T10:28:36.645Z,41.10
2018-09-19T10:33:32.708Z,40.80
2018-09-19T10:38:26.721Z,40.80
2018-09-19T10:43:22.477Z,40.60
2018-09-19T10:48:17.130Z,41.00
2018-09-19T10:53:13.710Z,42.30
2018-09-19T10:58:08.939Z,42.60
2018-09-19T11:03:26.052Z,41.80
2018-09-19T11:08:35.887Z,41.10
2018-09-19T11:13:46.519Z,41.10
2018-09-19T11:18:58.237Z,37.70
2018-09-19T11:23:54.882Z,36.30
2018-09-19T11:28:57.793Z,34.60
2018-09-19T11:33:53.854Z,33.80
2018-09-19T11:38:49.306Z,31.60
2018-09-19T11:43:43.731Z,30.80
2018-09-19T11:48:38.242Z,30.50
2018-09-19T11:53:34.055Z,30.30
2018-09-19T11:58:29.373Z,30.00
2018-09-19T12:03:24.771Z,30.10
2018-09-19T12:08:20.942Z,29.80
2018-09-19T12:13:23.508Z,29.30
2018-09-19T12:18:25.304Z,29.10
2018-09-19T12:23:28.169Z,29.10
2018-09-19T12:28:24.452Z,29.10
2018-09-19T12:33:19.742Z,29.50
2018-09-19T12:38:14.956Z,29.80
2018-09-19T12:43:09.166Z,30.00
2018-09-19T12:48:04.025Z,29.90
2018-09-19T12:52:58.114Z,29.60
2018-09-19T12:57:54.679Z,29.80
2018-09-19T13:02:49.619Z,29.80
2018-09-19T13:07:44.370Z,29.90
2018-09-19T13:12:38.968Z,29.80
2018-09-19T13:17:34.271Z,29.70
2018-09-19T13:22:29.290Z,29.60
2018-09-19T13:27:23.542Z,29.70
2018-09-19T13:32:32.879Z,29.70
2018-09-19T13:37:46.052Z,29.80
2018-09-19T13:42:40.712Z,29.70
2018-09-19T13:47:44.571Z,29.60
2018-09-19T13:52:40.916Z,29.50
2018-09-19T13:57:38.284Z,29.40
2018-09-19T14:02:33.211Z,29.20
2018-09-19T14:07:28.955Z,29.20
2018-09-19T14:12:33.110Z,29.20
2018-09-19T14:17:29.140Z,29.30
2018-09-19T14:22:23.564Z,29.20
2018-09-19T14:27:20.238Z,29.20
2018-09-19T14:32:17.271Z,29.30
2018-09-19T14:37:14.405Z,29.10
2018-09-19T14:42:08.892Z,29.10
2018-09-19T14:47:25.510Z,29.10
2018-09-19T14:52:20.471Z,29.20
2018-09-19T14:57:14.979Z,29.20
2018-09-19T15:02:10.169Z,29.10
2018-09-19T15:07:05.533Z,29.10
2018-09-19T15:12:03.232Z,29.10
2018-09-19T15:17:01.785Z,29.00
2018-09-19T15:21:57.965Z,28.90
2018-09-19T15:26:54.011Z,28.80
2018-09-19T15:31:52.438Z,28.70
2018-09-19T15:36:56.343Z,28.60
2018-09-19T15:41:53.766Z,28.60
2018-09-19T15:46:49.081Z,28.60
2018-09-19T15:51:44.915Z,28.50
2018-09-19T15:56:40.025Z,28.50
2018-09-19T16:01:36.229Z,28.40
2018-09-19T16:06:32.195Z,28.40
2018-09-19T16:11:27.069Z,28.30
2018-09-19T16:16:23.576Z,28.20
2018-09-19T16:21:27.079Z,28.00
2018-09-19T16:26:29.844Z,27.90
2018-09-19T16:31:33.549Z,27.80
2018-09-19T16:36:34.413Z,27.70
2018-09-19T16:41:30.821Z,27.60
2018-09-19T16:46:26.228Z,27.40
2018-09-19T16:51:21.918Z,27.30
2018-09-19T16:56:24.644Z,27.20
2018-09-19T17:01:29.679Z,27.00
2018-09-19T17:06:32.829Z,26.70
2018-09-19T17:11:28.828Z,26.40
2018-09-19T17:16:24.236Z,26.00
2018-09-19T17:21:19.338Z,25.80
2018-09-19T17:26:14.593Z,25.60
2018-09-19T17:31:18.142Z,25.40
2018-09-19T17:36:22.096Z,25.10
2018-09-19T17:41:24.469Z,24.90
2018-09-19T17:46:30.254Z,24.70
2018-09-19T17:51:39.210Z,24.50
2018-09-19T17:56:50.756Z,24.30
2018-09-19T18:02:01.382Z,24.10
2018-09-19T18:07:13.880Z,23.90
2018-09-19T18:12:09.033Z,23.80
2018-09-19T18:17:14.675Z,23.70
2018-09-19T18:22:11.076Z,23.70
2018-09-19T18:27:13.664Z,23.60
2018-09-19T18:32:08.697Z,23.40
2018-09-19T18:37:06.446Z,23.30
2018-09-19T18:42:15.855Z,23.20
2018-09-19T18:47:19.651Z,23.10
2018-09-19T18:52:16.275Z,23.00
2018-09-19T18:57:12.012Z,22.90
2018-09-19T19:02:09.745Z,22.80
2018-09-19T19:07:06.088Z,22.70
2018-09-19T19:12:09.465Z,22.60
2018-09-19T19:17:07.105Z,22.50
2018-09-19T19:22:05.532Z,22.50
2018-09-19T19:27:02.236Z,22.30
2018-09-19T19:31:57.348Z,22.30
2018-09-19T19:37:00.755Z,22.10
2018-09-19T19:41:56.096Z,22.00
2018-09-19T19:46:51.209Z,21.90
2018-09-19T19:51:56.065Z,21.80
2018-09-19T19:56:51.351Z,21.70
2018-09-19T20:01:56.742Z,21.60
2018-09-19T20:07:01.201Z,21.50
2018-09-19T20:11:57.583Z,21.40
2018-09-19T20:16:53.700Z,21.40
2018-09-19T20:21:49.662Z,21.20
2018-09-19T20:26:46.877Z,21.20
2018-09-19T20:31:50.777Z,21.20
2018-09-19T20:36:45.791Z,21.10
2018-09-19T20:41:45.895Z,21.00
2018-09-19T20:46:41.534Z,20.90
2018-09-19T20:51:36.131Z,20.80
2018-09-19T20:56:33.871Z,20.80
2018-09-19T21:01:39.111Z,20.70
2018-09-19T21:06:43.928Z,20.60
2018-09-19T21:11:48.907Z,20.60
2018-09-19T21:16:44.185Z,20.50
2018-09-19T21:21:43.239Z,20.50
2018-09-19T21:26:38.632Z,20.40
2018-09-19T21:31:35.298Z,20.30
2018-09-19T21:36:31.672Z,20.10
2018-09-19T21:41:26.839Z,20.10
2018-09-19T21:46:23.388Z,20.00
2018-09-19T21:51:18.459Z,19.80
2018-09-19T21:56:19.701Z,19.70
2018-09-19T22:01:14.110Z,19.60
2018-09-19T22:06:11.983Z,19.50
2018-09-19T22:11:06.712Z,19.40
2018-09-19T22:16:03.707Z,19.40
2018-09-19T22:21:00.351Z,19.40
2018-09-19T22:25:55.993Z,19.40
2018-09-19T22:30:55.669Z,19.30
2018-09-19T22:35:50.394Z,19.20
2018-09-19T22:40:46.386Z,19.20
2018-09-19T22:45:41.846Z,19.10
2018-09-19T22:50:38.917Z,19.00
2018-09-19T22:55:34.534Z,19.00
2018-09-19T23:00:33.278Z,18.90
2018-09-19T23:05:30.535Z,18.90
2018-09-19T23:10:27.280Z,18.80
2018-09-19T23:15:23.573Z,18.80
2018-09-19T23:20:18.911Z,18.90
2018-09-19T23:25:14.878Z,18.90
2018-09-19T23:30:11.344Z,18.90
2018-09-19T23:35:16.350Z,18.70
2018-09-19T23:40:13.602Z,18.60
2018-09-19T23:45:08.280Z,18.60
2018-09-19T23:50:03.981Z,18.50
2018-09-19T23:54:59.933Z,18.60
2018-09-19T23:59:56.525Z,18.50
